createdAt,value
2022-10-26T00:01:08.235Z,100591.84
2022-10-26T00:03:39.863Z,100583.88
2022-10-26T00:06:10.188Z,100586.59
2022-10-26T00:08:42.065Z,100590.16
2022-10-26T00:11:11.123Z,100594.81
2022-10-26T00:13:40.500Z,100592.53
2022-10-26T00:16:13.926Z,100598.03
2022-10-26T00:18:42.088Z,100603.38
2022-10-26T00:21:11.701Z,100596.91
2022-10-26T00:23:43.570Z,100600.03
2022-10-26T00:26:11.634Z,100612.38
2022-10-26T00:28:39.559Z,100614.28
2022-10-26T00:31:09.396Z,100614.28
2022-10-26T00:33:37.394Z,100624.84
2022-10-26T00:36:05.939Z,100623.31
2022-10-26T00:38:33.860Z,100621.88
2022-10-26T00:41:03.286Z,100624.63
2022-10-26T00:43:39.314Z,100638.84
2022-10-26T00:46:12.686Z,100635.75
2022-10-26T00:48:44.459Z,100636.44
2022-10-26T00:51:17.693Z,100642.81
2022-10-26T00:53:46.019Z,100641.28
2022-10-26T00:56:16.992Z,100632.00
2022-10-26T00:58:45.444Z,100646.84
2022-10-26T01:01:13.434Z,100644.69
2022-10-26T01:03:41.637Z,100645.97
2022-10-26T01:06:10.899Z,100664.38
2022-10-26T01:08:38.998Z,100666.28
2022-10-26T01:11:07.246Z,100663.47
2022-10-26T01:13:37.545Z,100666.31
2022-10-26T01:16:21.748Z,100664.22
2022-10-26T01:19:00.472Z,100666.09
2022-10-26T01:21:50.808Z,100676.66
2022-10-26T01:24:33.656Z,100673.44
2022-10-26T01:27:30.779Z,100677.09
2022-10-26T01:30:17.297Z,100684.22
2022-10-26T01:32:52.321Z,100685.16
2022-10-26T01:35:28.793Z,100685.38
2022-10-26T01:38:03.376Z,100690.00
2022-10-26T01:40:35.804Z,100697.84
2022-10-26T01:43:09.130Z,100692.09
2022-10-26T01:45:41.369Z,100700.91
2022-10-26T01:48:11.903Z,100701.91
2022-10-26T01:50:41.839Z,100699.41
2022-10-26T01:53:13.595Z,100705.91
2022-10-26T01:55:46.077Z,100707.88
2022-10-26T01:58:43.361Z,100709.78
2022-10-26T02:01:28.188Z,100715.13
2022-10-26T02:04:07.098Z,100714.38
2022-10-26T02:06:46.998Z,100713.63
2022-10-26T02:09:22.288Z,100725.03
2022-10-26T02:11:54.415Z,100723.38
2022-10-26T02:14:30.442Z,100726.91
2022-10-26T02:17:07.220Z,100727.13
2022-10-26T02:19:41.903Z,100733.31
2022-10-26T02:22:15.970Z,100729.03
2022-10-26T02:24:45.081Z,100737.78
2022-10-26T02:27:17.419Z,100735.38
2022-10-26T02:29:45.636Z,100736.63
2022-10-26T02:32:15.750Z,100738.63
2022-10-26T02:34:46.531Z,100741.16
2022-10-26T02:37:17.345Z,100735.19
2022-10-26T02:39:48.286Z,100738.00
2022-10-26T02:42:17.496Z,100746.69
2022-10-26T02:44:50.355Z,100743.22
2022-10-26T02:47:20.619Z,100745.00
2022-10-26T02:49:48.874Z,100746.88
2022-10-26T02:52:25.280Z,100749.41
2022-10-26T02:54:58.011Z,100751.16
2022-10-26T02:57:31.291Z,100756.47
2022-10-26T03:00:00.387Z,100761.72
2022-10-26T03:02:30.838Z,100760.97
2022-10-26T03:05:06.964Z,100765.69
2022-10-26T03:07:34.824Z,100767.13
2022-10-26T03:10:02.867Z,100773.22
2022-10-26T03:12:30.701Z,100772.38
2022-10-26T03:14:58.743Z,100774.22
2022-10-26T03:17:26.819Z,100774.31
2022-10-26T03:19:56.233Z,100775.28
2022-10-26T03:22:24.510Z,100784.97
2022-10-26T03:24:52.438Z,100779.66
2022-10-26T03:27:20.278Z,100778.00
2022-10-26T03:29:48.187Z,100791.91
2022-10-26T03:32:16.198Z,100791.06
2022-10-26T03:34:44.205Z,100793.66
2022-10-26T03:37:14.370Z,100799.72
2022-10-26T03:39:42.295Z,100798.78
2022-10-26T03:42:10.367Z,100804.84
2022-10-26T03:44:38.231Z,100800.44
2022-10-26T03:47:06.111Z,100805.66
2022-10-26T03:49:33.967Z,100805.56
2022-10-26T03:52:01.875Z,100810.78
2022-10-26T03:54:31.485Z,100808.28
2022-10-26T03:56:59.426Z,100810.78
2022-10-26T03:59:27.303Z,100827.41
2022-10-26T04:01:57.670Z,100825.56
2022-10-26T04:04:26.421Z,100825.75
2022-10-26T04:06:54.335Z,100822.28
2022-10-26T04:09:22.256Z,100833.50
2022-10-26T04:11:55.028Z,100832.63
2022-10-26T04:14:25.918Z,100827.50
2022-10-26T04:16:53.763Z,100836.09
2022-10-26T04:19:24.375Z,100831.06
2022-10-26T04:21:52.724Z,100834.41
2022-10-26T04:24:20.622Z,100833.59
2022-10-26T04:26:48.624Z,100844.03
2022-10-26T04:29:17.983Z,100847.47
2022-10-26T04:31:45.839Z,100843.94
2022-10-26T04:34:14.118Z,100850.94
2022-10-26T04:36:41.964Z,100851.03
2022-10-26T04:39:09.933Z,100858.84
2022-10-26T04:41:38.469Z,100861.47
2022-10-26T04:44:06.745Z,100871.06
2022-10-26T04:46:35.971Z,100868.25
2022-10-26T04:49:04.056Z,100867.53
2022-10-26T04:51:31.964Z,100877.88
2022-10-26T04:54:03.669Z,100869.22
2022-10-26T04:56:31.906Z,100877.03
2022-10-26T04:58:59.778Z,100883.13
2022-10-26T05:01:27.927Z,100882.28
2022-10-26T05:03:57.251Z,100886.66
2022-10-26T05:06:25.201Z,100899.81
2022-10-26T05:08:53.303Z,100907.63
2022-10-26T05:11:21.240Z,100911.19
2022-10-26T05:13:50.052Z,100918.09
2022-10-26T05:16:17.994Z,100925.00
2022-10-26T05:18:48.675Z,100929.38
2022-10-26T05:21:19.773Z,100926.97
2022-10-26T05:23:52.577Z,100939.19
2022-10-26T05:26:20.763Z,100937.50
2022-10-26T05:28:48.870Z,100939.28
2022-10-26T05:31:16.784Z,100940.03
2022-10-26T05:33:44.638Z,100937.50
2022-10-26T05:36:12.529Z,100940.13
2022-10-26T05:38:41.816Z,100944.41
2022-10-26T05:41:09.760Z,100946.91
2022-10-26T05:43:37.794Z,100951.41
2022-10-26T05:46:05.950Z,100956.72
2022-10-26T05:48:33.960Z,100955.03
2022-10-26T05:51:02.212Z,100958.50
2022-10-26T05:53:30.075Z,100969.03
2022-10-26T05:56:00.327Z,100978.53
2022-10-26T05:58:28.687Z,100981.16
2022-10-26T06:01:15.219Z,100982.00
2022-10-26T06:03:56.135Z,100979.38
2022-10-26T06:06:24.710Z,100984.63
2022-10-26T06:08:53.150Z,100989.84
2022-10-26T06:11:23.161Z,100999.44
2022-10-26T06:13:51.671Z,100992.44
2022-10-26T06:16:35.288Z,100998.44
2022-10-26T06:19:15.596Z,101004.47
2022-10-26T06:21:53.976Z,101006.25
2022-10-26T06:24:28.923Z,101002.81
2022-10-26T06:27:08.090Z,101016.63
2022-10-26T06:29:45.986Z,101022.75
2022-10-26T06:32:17.244Z,101017.44
2022-10-26T06:34:51.480Z,101025.19
2022-10-26T06:37:19.819Z,101018.28
2022-10-26T06:39:53.905Z,101022.47
2022-10-26T06:42:24.740Z,101028.53
2022-10-26T06:44:53.112Z,101026.88
2022-10-26T06:47:27.439Z,101032.72
2022-10-26T06:50:02.481Z,101027.41
2022-10-26T06:52:36.548Z,101032.72
2022-10-26T06:55:05.413Z,101037.13
2022-10-26T06:57:39.116Z,101045.69
2022-10-26T07:00:09.459Z,101038.81
2022-10-26T07:02:37.138Z,101036.28
2022-10-26T07:05:05.528Z,101029.94
2022-10-26T07:07:33.844Z,101028.06
2022-10-26T07:10:02.284Z,101032.25
2022-10-26T07:12:32.865Z,101036.56
2022-10-26T07:15:02.756Z,101041.78
2022-10-26T07:17:30.799Z,101045.88
2022-10-26T07:19:58.757Z,101042.22
2022-10-26T07:22:26.853Z,101046.44
2022-10-26T07:24:57.034Z,101049.59
2022-10-26T07:27:27.141Z,101050.34
2022-10-26T07:29:55.057Z,101049.41
2022-10-26T07:32:24.396Z,101056.94
2022-10-26T07:34:55.214Z,101062.06
2022-10-26T07:37:23.083Z,101064.59
2022-10-26T07:39:50.992Z,101058.41
2022-10-26T07:42:19.044Z,101066.16
2022-10-26T07:44:46.947Z,101073.72
2022-10-26T07:47:15.333Z,101071.09
2022-10-26T07:49:44.905Z,101073.72
2022-10-26T07:52:12.983Z,101079.59
2022-10-26T07:54:40.827Z,101090.63
2022-10-26T07:57:08.700Z,101093.25
2022-10-26T07:59:36.663Z,101103.50
2022-10-26T08:02:04.609Z,101104.31
2022-10-26T08:04:32.482Z,101106.94
2022-10-26T08:07:01.757Z,101112.06
2022-10-26T08:09:29.811Z,101108.63
2022-10-26T08:12:00.454Z,101114.59
2022-10-26T08:14:31.532Z,101123.38
2022-10-26T08:16:59.576Z,101130.38
2022-10-26T08:19:27.423Z,101129.56
2022-10-26T08:21:55.470Z,101139.16
2022-10-26T08:24:24.867Z,101126.94
2022-10-26T08:26:52.701Z,101133.09
2022-10-26T08:29:20.522Z,101128.03
2022-10-26T08:31:49.141Z,101132.44
2022-10-26T08:34:17.175Z,101126.28
2022-10-26T08:36:45.030Z,101126.28
2022-10-26T08:39:13.046Z,101133.94
2022-10-26T08:41:45.968Z,101136.34
2022-10-26T08:44:23.796Z,101147.66
2022-10-26T08:46:55.735Z,101151.00
2022-10-26T08:49:26.945Z,101144.75
2022-10-26T08:51:59.019Z,101153.44
2022-10-26T08:54:36.659Z,101145.47
2022-10-26T08:57:16.083Z,101142.69
2022-10-26T08:59:50.207Z,101147.81
2022-10-26T09:02:19.118Z,101158.19
2022-10-26T09:04:47.794Z,101162.47
2022-10-26T09:07:28.896Z,101160.03
2022-10-26T09:10:08.523Z,101177.63
2022-10-26T09:12:47.220Z,101176.78
2022-10-26T09:15:26.879Z,101175.63
2022-10-26T09:18:03.622Z,101178.25
2022-10-26T09:20:51.072Z,101170.41
2022-10-26T09:23:32.573Z,101174.91
2022-10-26T09:26:03.198Z,101178.34
2022-10-26T09:28:37.008Z,101176.56
2022-10-26T09:31:05.894Z,101170.50
2022-10-26T09:33:38.188Z,101176.47
2022-10-26T09:36:16.012Z,101180.88
2022-10-26T09:38:50.432Z,101185.19
2022-10-26T09:41:27.138Z,101193.94
2022-10-26T09:44:06.667Z,101190.41
2022-10-26T09:46:43.102Z,101189.38
2022-10-26T09:49:13.783Z,101197.22
2022-10-26T09:51:43.220Z,101198.59
2022-10-26T09:54:16.347Z,101196.66
2022-10-26T09:56:45.925Z,101198.41
2022-10-26T09:59:16.585Z,101206.81
2022-10-26T10:01:44.589Z,101219.81
2022-10-26T10:04:21.261Z,101219.81
2022-10-26T10:06:53.544Z,101218.13
2022-10-26T10:09:22.988Z,101213.91
2022-10-26T10:11:56.690Z,101207.88
2022-10-26T10:14:28.572Z,101213.00
2022-10-26T10:16:58.987Z,101199.81
2022-10-26T10:19:27.793Z,101210.47
2022-10-26T10:21:57.580Z,101214.38
2022-10-26T10:24:29.114Z,101208.13
2022-10-26T10:26:59.174Z,101214.97
2022-10-26T10:29:29.026Z,101211.31
2022-10-26T10:31:58.390Z,101214.69
2022-10-26T10:34:26.683Z,101217.22
2022-10-26T10:36:55.754Z,101234.56
2022-10-26T10:39:41.070Z,101228.50
2022-10-26T10:42:19.745Z,101226.81
2022-10-26T10:44:54.298Z,101236.34
2022-10-26T10:47:26.864Z,101242.06
2022-10-26T10:50:02.352Z,101238.72
2022-10-26T10:52:32.234Z,101248.03
2022-10-26T10:55:11.919Z,101254.84
2022-10-26T10:57:56.464Z,101264.03
2022-10-26T11:00:26.994Z,101271.19
2022-10-26T11:03:25.979Z,101277.25
2022-10-26T11:06:06.180Z,101280.81
2022-10-26T11:08:39.208Z,101277.44
2022-10-26T11:11:11.951Z,101285.50
2022-10-26T11:13:45.519Z,101286.44
2022-10-26T11:16:18.043Z,101295.09
2022-10-26T11:18:51.684Z,101298.66
2022-10-26T11:21:28.328Z,101298.09
2022-10-26T11:24:11.009Z,101304.34
2022-10-26T11:26:46.331Z,101298.38
2022-10-26T11:29:24.912Z,101309.00
2022-10-26T11:31:58.101Z,101299.59
2022-10-26T11:34:36.167Z,101306.41
2022-10-26T11:37:10.661Z,101313.34
2022-10-26T11:39:45.985Z,101306.41
2022-10-26T11:42:27.113Z,101303.69
2022-10-26T11:45:00.771Z,101304.63
2022-10-26T11:47:39.060Z,101302.69
2022-10-26T11:50:17.714Z,101306.31
2022-10-26T11:52:51.217Z,101309.59
2022-10-26T11:55:19.769Z,101308.66
2022-10-26T11:57:48.165Z,101313.97
2022-10-26T12:00:19.071Z,101321.09
2022-10-26T12:02:53.844Z,101324.44
2022-10-26T12:05:24.764Z,101329.66
2022-10-26T12:07:56.538Z,101336.69
2022-10-26T12:10:30.466Z,101328.94
2022-10-26T12:13:06.701Z,101336.88
2022-10-26T12:18:57.254Z,101342.91
2022-10-26T12:21:28.890Z,101339.41
2022-10-26T12:23:59.233Z,101342.19
2022-10-26T12:26:41.667Z,101339.75
2022-10-26T12:29:31.933Z,101343.31
2022-10-26T12:32:00.399Z,101341.53
2022-10-26T12:35:01.190Z,101342.28
2022-10-26T12:37:36.956Z,101345.09
2022-10-26T12:40:40.842Z,101346.94
2022-10-26T12:43:35.032Z,101349.63
2022-10-26T12:46:42.428Z,101347.03
2022-10-26T12:50:01.232Z,101344.69
2022-10-26T12:52:48.485Z,101344.78
2022-10-26T12:55:51.985Z,101353.47
2022-10-26T12:58:53.896Z,101358.59
2022-10-26T13:01:57.995Z,101370.00
2022-10-26T13:04:49.673Z,101379.72
2022-10-26T13:07:23.445Z,101376.25
2022-10-26T13:09:58.923Z,101369.44
2022-10-26T13:12:29.242Z,101371.94
2022-10-26T13:15:02.017Z,101380.75
2022-10-26T13:20:08.379Z,101376.50
2022-10-26T13:22:47.766Z,101377.63
2022-10-26T13:25:24.759Z,101373.25
2022-10-26T13:28:06.027Z,101379.56
2022-10-26T13:30:44.345Z,101376.13
2022-10-26T13:33:24.488Z,101380.50
2022-10-26T13:35:56.210Z,101382.34
2022-10-26T13:38:35.111Z,101384.25
2022-10-26T13:41:18.259Z,101387.66
2022-10-26T13:43:50.279Z,101395.50
2022-10-26T13:46:28.084Z,101393.06
2022-10-26T13:49:01.852Z,101392.16
2022-10-26T13:51:41.434Z,101398.31
2022-10-26T13:54:23.033Z,101388.78
2022-10-26T13:57:03.103Z,101394.97
2022-10-26T13:59:34.352Z,101401.09
2022-10-26T14:02:17.097Z,101401.34
2022-10-26T14:04:48.403Z,101403.06
2022-10-26T14:07:26.582Z,101410.91
2022-10-26T14:09:56.572Z,101404.06
2022-10-26T14:12:29.165Z,101410.22
2022-10-26T14:15:04.509Z,101415.53
2022-10-26T14:17:33.060Z,101411.34
2022-10-26T14:20:01.428Z,101420.00
2022-10-26T14:22:31.033Z,101418.41
2022-10-26T14:25:00.750Z,101428.94
2022-10-26T14:27:39.797Z,101429.97
2022-10-26T14:30:23.843Z,101423.25
2022-10-26T14:32:52.937Z,101433.63
2022-10-26T14:35:24.503Z,101429.97
2022-10-26T14:37:55.083Z,101425.78
2022-10-26T14:40:26.534Z,101443.97
2022-10-26T14:42:58.202Z,101438.91
2022-10-26T14:45:49.362Z,101445.13
2022-10-26T14:48:24.814Z,101443.56
2022-10-26T14:51:00.107Z,101446.34
2022-10-26T14:53:35.965Z,101454.09
2022-10-26T14:56:05.832Z,101449.03
2022-10-26T14:58:36.287Z,101460.31
2022-10-26T15:01:16.921Z,101454.59
2022-10-26T15:03:45.853Z,101452.66
2022-10-26T15:06:41.855Z,101462.44
2022-10-26T15:09:38.531Z,101465.13
2022-10-26T15:12:09.532Z,101457.38
2022-10-26T15:14:44.439Z,101470.50
2022-10-26T15:17:23.541Z,101467.13
2022-10-26T15:19:53.888Z,101471.63
2022-10-26T15:22:24.604Z,101472.19
2022-10-26T15:24:56.492Z,101472.59
2022-10-26T15:27:25.915Z,101472.69
2022-10-26T15:30:13.560Z,101484.75
2022-10-26T15:32:42.037Z,101483.22
2022-10-26T15:35:27.120Z,101491.13
2022-10-26T15:37:56.813Z,101486.75
2022-10-26T15:43:01.789Z,101502.34
2022-10-26T15:45:35.434Z,101501.41
2022-10-26T15:48:19.577Z,101500.59
2022-10-26T15:50:47.541Z,101511.03
2022-10-26T15:53:20.505Z,101518.94
2022-10-26T15:55:48.819Z,101518.94
2022-10-26T15:58:17.142Z,101517.25
2022-10-26T16:00:46.639Z,101518.25
2022-10-26T16:03:17.200Z,101526.94
2022-10-26T16:05:45.001Z,101529.03
2022-10-26T16:08:18.022Z,101528.78
2022-10-26T16:10:47.864Z,101530.53
2022-10-26T16:13:16.556Z,101534.16
2022-10-26T16:15:46.194Z,101536.78
2022-10-26T16:18:14.462Z,101526.34
2022-10-26T16:20:42.847Z,101532.34
2022-10-26T16:23:10.758Z,101537.88
2022-10-26T16:25:43.772Z,101530.91
2022-10-26T16:28:14.544Z,101534.50
2022-10-26T16:30:42.930Z,101535.44
2022-10-26T16:33:12.371Z,101527.84
2022-10-26T16:35:40.314Z,101530.69
2022-10-26T16:38:08.262Z,101532.59
2022-10-26T16:40:36.108Z,101537.06
2022-10-26T16:43:04.062Z,101547.59
2022-10-26T16:45:32.009Z,101537.38
2022-10-26T16:47:59.857Z,101536.69
2022-10-26T16:50:30.040Z,101536.69
2022-10-26T16:53:01.262Z,101542.06
2022-10-26T16:55:29.119Z,101548.16
2022-10-26T16:57:57.057Z,101551.72
2022-10-26T17:00:25.083Z,101550.13
2022-10-26T17:02:56.089Z,101558.97
2022-10-26T17:05:28.556Z,101559.88
2022-10-26T17:07:56.951Z,101554.72
2022-10-26T17:10:25.820Z,101561.66
2022-10-26T17:12:53.746Z,101566.94
2022-10-26T17:15:23.273Z,101558.34
2022-10-26T17:17:53.610Z,101556.81
2022-10-26T17:20:21.448Z,101569.00
2022-10-26T17:22:51.255Z,101568.25
2022-10-26T17:25:19.577Z,101574.31
2022-10-26T17:27:47.628Z,101577.00
2022-10-26T17:30:15.663Z,101574.38
2022-10-26T17:32:43.849Z,101575.31
2022-10-26T17:35:11.754Z,101569.94
2022-10-26T17:37:40.989Z,101574.16
2022-10-26T17:40:11.577Z,101564.50
2022-10-26T17:42:40.676Z,101568.72
2022-10-26T17:45:10.590Z,101561.72
2022-10-26T17:47:38.530Z,101568.63
2022-10-26T17:50:07.472Z,101568.56
2022-10-26T17:52:35.375Z,101573.69
2022-10-26T17:55:03.382Z,101575.38
2022-10-26T17:57:35.517Z,101573.63
2022-10-26T18:00:04.170Z,101577.81
2022-10-26T18:02:32.204Z,101572.59
2022-10-26T18:05:03.770Z,101579.53
2022-10-26T18:07:34.782Z,101579.53
2022-10-26T18:10:14.012Z,101584.75
2022-10-26T18:12:52.257Z,101585.66
2022-10-26T18:15:20.552Z,101592.59
2022-10-26T18:17:52.423Z,101594.25
2022-10-26T18:20:22.435Z,101592.66
2022-10-26T18:22:50.559Z,101596.88
2022-10-26T18:25:18.619Z,101604.69
2022-10-26T18:27:46.551Z,101607.38
2022-10-26T18:30:16.794Z,101609.91
2022-10-26T18:32:44.685Z,101612.69
2022-10-26T18:35:12.795Z,101612.84
2022-10-26T18:37:41.137Z,101612.91
2022-10-26T18:40:10.166Z,101617.97
2022-10-26T18:42:38.230Z,101625.72
2022-10-26T18:45:07.387Z,101621.38
2022-10-26T18:47:36.643Z,101631.72
2022-10-26T18:50:04.591Z,101628.34
2022-10-26T18:52:32.468Z,101634.34
2022-10-26T18:55:00.548Z,101636.03
2022-10-26T18:57:28.937Z,101636.03
2022-10-26T18:59:56.836Z,101644.72
2022-10-26T19:02:25.166Z,101651.69
2022-10-26T19:04:58.921Z,101639.56
2022-10-26T19:07:26.833Z,101649.06
2022-10-26T19:09:54.702Z,101650.00
2022-10-26T19:12:23.764Z,101653.50
2022-10-26T19:14:51.756Z,101651.69
2022-10-26T19:17:19.653Z,101658.66
2022-10-26T19:19:47.612Z,101665.72
2022-10-26T19:22:19.890Z,101664.09
2022-10-26T19:24:48.333Z,101672.94
2022-10-26T19:29:49.008Z,101671.31
2022-10-26T19:32:16.852Z,101675.75
2022-10-26T19:34:44.694Z,101681.06
2022-10-26T19:37:12.617Z,101667.13
2022-10-26T19:39:42.727Z,101672.47
2022-10-26T19:42:10.579Z,101674.31
2022-10-26T19:44:38.444Z,101676.84
2022-10-26T19:47:06.322Z,101675.09
2022-10-26T19:49:34.236Z,101671.63
2022-10-26T19:52:02.702Z,101678.53
2022-10-26T19:54:30.627Z,101681.19
2022-10-26T19:56:59.814Z,101682.06
2022-10-26T19:59:27.884Z,101696.78
2022-10-26T20:01:57.734Z,101686.28
2022-10-26T20:04:25.682Z,101691.41
2022-10-26T20:06:53.882Z,101688.00
2022-10-26T20:09:21.798Z,101682.66
2022-10-26T20:11:49.888Z,101693.09
2022-10-26T20:14:19.653Z,101686.34
2022-10-26T20:16:47.576Z,101694.25
2022-10-26T20:19:15.483Z,101704.75
2022-10-26T20:21:43.535Z,101705.84
2022-10-26T20:24:11.623Z,101700.69
2022-10-26T20:26:40.301Z,101702.50
2022-10-26T20:29:08.327Z,101711.34
2022-10-26T20:31:37.551Z,101705.25
2022-10-26T20:34:05.648Z,101703.59
2022-10-26T20:36:33.864Z,101701.88
2022-10-26T20:39:02.575Z,101704.47
2022-10-26T20:41:32.357Z,101703.59
2022-10-26T20:44:01.952Z,101721.88
2022-10-26T20:46:30.469Z,101714.13
2022-10-26T20:49:00.296Z,101717.59
2022-10-26T20:52:08.195Z,101725.50
2022-10-26T20:54:40.594Z,101723.72
2022-10-26T20:57:15.058Z,101727.09
2022-10-26T20:59:48.739Z,101734.94
2022-10-26T21:02:16.897Z,101732.28
2022-10-26T21:04:46.372Z,101737.53
2022-10-26T21:07:14.696Z,101744.50
2022-10-26T21:09:42.804Z,101743.59
2022-10-26T21:12:10.678Z,101747.13
2022-10-26T21:14:40.940Z,101749.03
2022-10-26T21:17:09.190Z,101747.59
2022-10-26T21:19:37.230Z,101751.88
2022-10-26T21:22:06.779Z,101737.81
2022-10-26T21:24:37.624Z,101752.53
2022-10-26T21:27:08.614Z,101753.47
2022-10-26T21:29:36.519Z,101750.00
2022-10-26T21:32:04.723Z,101745.72
2022-10-26T21:34:32.624Z,101745.72
2022-10-26T21:37:00.567Z,101742.19
2022-10-26T21:39:29.898Z,101744.09
2022-10-26T21:41:57.752Z,101748.47
2022-10-26T21:44:40.445Z,101745.00
2022-10-26T21:47:09.710Z,101739.94
2022-10-26T21:49:37.700Z,101735.50
2022-10-26T21:52:06.069Z,101737.09
2022-10-26T21:54:35.376Z,101731.97
2022-10-26T21:57:03.322Z,101738.88
2022-10-26T21:59:31.378Z,101743.09
2022-10-26T22:01:59.288Z,101735.22
2022-10-26T22:04:27.304Z,101727.47
2022-10-26T22:06:55.691Z,101730.84
2022-10-26T22:09:23.546Z,101731.69
2022-10-26T22:11:52.890Z,101732.53
2022-10-26T22:14:21.523Z,101734.28
2022-10-26T22:16:49.435Z,101731.69
2022-10-26T22:19:17.346Z,101744.03
2022-10-26T22:21:45.209Z,101750.16
2022-10-26T22:24:13.043Z,101742.38
2022-10-26T22:26:40.881Z,101748.53
2022-10-26T22:29:10.308Z,101752.00
2022-10-26T22:31:40.629Z,101743.19
2022-10-26T22:34:14.278Z,101743.97
2022-10-26T22:36:42.425Z,101743.97
2022-10-26T22:39:10.341Z,101754.31
2022-10-26T22:41:38.177Z,101755.09
2022-10-26T22:44:06.673Z,101750.72
2022-10-26T22:46:36.051Z,101748.97
2022-10-26T22:49:04.635Z,101751.66
2022-10-26T22:51:33.947Z,101754.41
2022-10-26T22:54:03.596Z,101744.09
2022-10-26T22:56:32.442Z,101756.22
2022-10-26T22:59:00.689Z,101750.28
2022-10-26T23:01:31.763Z,101766.88
2022-10-26T23:04:01.646Z,101763.53
2022-10-26T23:06:31.599Z,101754.16
2022-10-26T23:08:59.894Z,101770.75
2022-10-26T23:11:29.371Z,101775.03
2022-10-26T23:13:58.678Z,101775.03
2022-10-26T23:16:27.349Z,101775.16
2022-10-26T23:18:55.871Z,101768.22
2022-10-26T23:21:29.379Z,101776.72
2022-10-26T23:23:57.953Z,101776.78
2022-10-26T23:26:25.863Z,101770.59
2022-10-26T23:28:53.891Z,101781.84
2022-10-26T23:31:25.961Z,101782.78
2022-10-26T23:33:55.132Z,101775.75
2022-10-26T23:36:23.851Z,101776.50
2022-10-26T23:38:55.555Z,101788.72
2022-10-26T23:41:23.590Z,101788.72
2022-10-26T23:43:51.427Z,101793.00
2022-10-26T23:46:19.422Z,101784.25
2022-10-26T23:48:47.318Z,101786.88
2022-10-26T23:51:15.201Z,101793.00
2022-10-26T23:53:43.121Z,101794.00
2022-10-26T23:56:12.585Z,101780.09
2022-10-26T23:58:40.588Z,101780.91
